createdAt,value
2018-07-26T00:00:53.590Z,1012.17
2018-07-26T00:01:53.576Z,1012.14
2018-07-26T00:02:53.567Z,1012.15
2018-07-26T00:03:53.560Z,1012.14
2018-07-26T00:04:53.561Z,1012.17
2018-07-26T00:05:53.539Z,1012.15
2018-07-26T00:06:53.526Z,1012.16
2018-07-26T00:07:53.516Z,1012.16
2018-07-26T00:08:53.507Z,1012.14
2018-07-26T00:09:53.496Z,1012.13
2018-07-26T00:10:53.490Z,1012.17
2018-07-26T00:11:53.478Z,1012.14
2018-07-26T00:12:53.468Z,1012.15
2018-07-26T00:13:53.457Z,1012.15
2018-07-26T00:14:53.447Z,1012.16
2018-07-26T00:15:53.439Z,1012.17
2018-07-26T00:16:53.428Z,1012.19
2018-07-26T00:17:53.413Z,1012.20
2018-07-26T00:18:53.405Z,1012.18
2018-07-26T00:19:53.397Z,1012.20
2018-07-26T00:20:53.387Z,1012.16
2018-07-26T00:21:53.379Z,1012.15
2018-07-26T00:22:53.366Z,1012.18
2018-07-26T00:23:53.356Z,1012.16
2018-07-26T00:24:53.347Z,1012.19
2018-07-26T00:25:53.336Z,1012.18
2018-07-26T00:26:53.337Z,1012.14
2018-07-26T00:27:53.315Z,1012.20
2018-07-26T00:28:53.305Z,1012.19
2018-07-26T00:29:53.294Z,1012.20
2018-07-26T00:30:53.285Z,1012.15
2018-07-26T00:31:53.276Z,1012.15
2018-07-26T00:32:53.266Z,1012.13
2018-07-26T00:33:53.254Z,1012.10
2018-07-26T00:34:53.244Z,1012.13
2018-07-26T00:35:53.235Z,1012.09
2018-07-26T00:36:53.222Z,1012.13
2018-07-26T00:37:53.210Z,1012.07
2018-07-26T00:38:53.202Z,1012.09
2018-07-26T00:39:53.191Z,1012.07
2018-07-26T00:40:53.183Z,1012.08
2018-07-26T00:41:53.172Z,1012.11
2018-07-26T00:42:53.161Z,1012.10
2018-07-26T00:43:53.153Z,1012.12
2018-07-26T00:44:53.140Z,1012.12
2018-07-26T00:45:53.130Z,1012.12
2018-07-26T00:46:53.120Z,1012.14
2018-07-26T00:47:53.108Z,1012.14
2018-07-26T00:48:53.145Z,1012.14
2018-07-26T00:49:53.091Z,1012.13
2018-07-26T00:50:53.078Z,1012.12
2018-07-26T00:51:53.073Z,1012.12
2018-07-26T00:52:53.058Z,1012.15
2018-07-26T00:53:53.048Z,1012.14
2018-07-26T00:54:53.036Z,1012.13
2018-07-26T00:55:53.030Z,1012.13
2018-07-26T00:56:53.016Z,1012.10
2018-07-26T00:57:53.004Z,1012.14
2018-07-26T00:58:52.996Z,1012.12
2018-07-26T00:59:52.987Z,1012.15
2018-07-26T01:00:52.974Z,1012.12
2018-07-26T01:01:52.964Z,1012.13
2018-07-26T01:02:52.954Z,1012.11
2018-07-26T01:03:52.945Z,1012.15
2018-07-26T01:04:52.932Z,1012.13
2018-07-26T01:05:52.919Z,1012.15
2018-07-26T01:06:52.910Z,1012.13
2018-07-26T01:07:52.900Z,1012.16
2018-07-26T01:08:52.891Z,1012.11
2018-07-26T01:09:52.878Z,1012.17
2018-07-26T01:10:52.868Z,1012.10
2018-07-26T01:11:52.857Z,1012.17
2018-07-26T01:12:52.849Z,1012.17
2018-07-26T01:13:52.836Z,1012.13
2018-07-26T01:14:52.825Z,1012.19
2018-07-26T01:15:52.816Z,1012.17
2018-07-26T01:16:52.805Z,1012.13
2018-07-26T01:17:52.792Z,1012.11
2018-07-26T01:18:52.785Z,1012.12
2018-07-26T01:19:52.772Z,1012.18
2018-07-26T01:20:52.760Z,1012.12
2018-07-26T01:21:52.749Z,1012.14
2018-07-26T01:22:52.739Z,1012.16
2018-07-26T01:24:35.262Z,1012.13
2018-07-26T01:25:35.248Z,1012.13
2018-07-26T01:26:35.241Z,1012.17
2018-07-26T01:27:35.229Z,1012.12
2018-07-26T01:28:35.222Z,1012.16
2018-07-26T01:29:35.210Z,1012.18
2018-07-26T01:30:35.199Z,1012.16
2018-07-26T01:31:35.183Z,1012.12
2018-07-26T01:32:35.172Z,1012.13
2018-07-26T01:33:35.162Z,1012.17
2018-07-26T01:34:35.150Z,1012.10
2018-07-26T01:35:35.140Z,1012.13
2018-07-26T01:36:35.127Z,1012.09
2018-07-26T01:37:35.118Z,1012.10
2018-07-26T01:38:35.111Z,1012.07
2018-07-26T01:39:35.100Z,1012.06
2018-07-26T01:40:35.089Z,1012.11
2018-07-26T01:41:35.075Z,1012.12
2018-07-26T01:42:35.068Z,1012.12
2018-07-26T01:43:35.052Z,1012.13
2018-07-26T01:44:35.040Z,1012.15
2018-07-26T01:45:35.030Z,1012.15
2018-07-26T01:46:35.021Z,1012.11
2018-07-26T01:47:35.008Z,1012.13
2018-07-26T01:48:34.998Z,1012.15
2018-07-26T01:49:34.988Z,1012.13
2018-07-26T01:50:34.976Z,1012.17
2018-07-26T01:51:34.964Z,1012.16
2018-07-26T01:52:34.951Z,1012.13
2018-07-26T01:53:34.941Z,1012.09
2018-07-26T01:54:34.929Z,1012.07
2018-07-26T01:55:34.919Z,1012.07
2018-07-26T01:56:34.907Z,1012.05
2018-07-26T01:57:34.898Z,1012.04
2018-07-26T01:58:34.887Z,1012.07
2018-07-26T01:59:34.877Z,1012.09
2018-07-26T02:00:34.865Z,1012.08
2018-07-26T02:01:34.904Z,1012.09
2018-07-26T02:02:34.840Z,1012.13
2018-07-26T02:03:34.828Z,1012.15
2018-07-26T02:04:34.821Z,1012.14
2018-07-26T02:05:34.813Z,1012.13
2018-07-26T02:06:34.801Z,1012.15
2018-07-26T02:07:34.785Z,1012.14
2018-07-26T02:08:34.773Z,1012.11
2018-07-26T02:09:34.768Z,1012.12
2018-07-26T02:10:34.753Z,1012.12
2018-07-26T02:11:34.740Z,1012.08
2018-07-26T02:12:34.729Z,1012.04
2018-07-26T02:13:34.721Z,1012.06
2018-07-26T02:14:34.709Z,1012.07
2018-07-26T02:15:34.695Z,1012.06
2018-07-26T02:16:34.682Z,1012.01
2018-07-26T02:17:34.671Z,1012.06
2018-07-26T02:18:34.659Z,1012.07
2018-07-26T02:19:34.653Z,1012.07
2018-07-26T02:20:34.641Z,1012.06
2018-07-26T02:21:34.627Z,1012.08
2018-07-26T02:22:34.615Z,1012.04
2018-07-26T02:23:34.605Z,1012.05
2018-07-26T02:24:34.594Z,1012.04
2018-07-26T02:25:34.583Z,1012.05
2018-07-26T02:26:34.570Z,1012.04
2018-07-26T02:27:34.554Z,1012.08
2018-07-26T02:28:34.547Z,1012.08
2018-07-26T02:29:34.533Z,1012.07
2018-07-26T02:30:34.521Z,1012.06
2018-07-26T02:31:34.517Z,1012.11
2018-07-26T02:32:34.502Z,1012.10
2018-07-26T02:33:34.489Z,1012.06
2018-07-26T02:34:34.477Z,1012.03
2018-07-26T02:35:34.463Z,1012.02
2018-07-26T02:36:34.450Z,1012.02
2018-07-26T02:37:34.451Z,1012.03
2018-07-26T02:38:34.425Z,1012.07
2018-07-26T02:39:34.435Z,1012.07
2018-07-26T02:40:34.408Z,1012.12
2018-07-26T02:41:34.392Z,1012.11
2018-07-26T02:42:34.382Z,1012.13
2018-07-26T02:43:34.375Z,1012.10
2018-07-26T02:44:34.360Z,1012.08
2018-07-26T02:45:34.395Z,1012.10
2018-07-26T02:46:34.334Z,1012.11
2018-07-26T02:47:34.321Z,1012.12
2018-07-26T02:48:34.308Z,1012.13
2018-07-26T02:49:34.305Z,1012.11
2018-07-26T02:50:34.287Z,1012.12
2018-07-26T02:51:34.279Z,1012.14
2018-07-26T02:52:34.265Z,1012.16
2018-07-26T02:53:34.271Z,1012.16
2018-07-26T02:54:34.440Z,1012.16
2018-07-26T02:55:34.226Z,1012.19
2018-07-26T02:56:34.215Z,1012.21
2018-07-26T02:57:34.203Z,1012.18
2018-07-26T02:58:34.211Z,1012.20
2018-07-26T03:00:17.922Z,1012.19
2018-07-26T03:01:16.920Z,1012.18
2018-07-26T03:03:54.310Z,1012.21
2018-07-26T03:04:54.498Z,1012.20
2018-07-26T03:05:54.284Z,1012.21
2018-07-26T03:06:54.596Z,1012.22
2018-07-26T03:07:54.266Z,1012.25
2018-07-26T03:08:54.251Z,1012.23
2018-07-26T03:09:54.237Z,1012.27
2018-07-26T03:13:30.046Z,1012.31
2018-07-26T03:14:30.035Z,1012.35
2018-07-26T03:15:30.018Z,1012.32
2018-07-26T03:16:30.006Z,1012.39
2018-07-26T03:17:30.007Z,1012.36
2018-07-26T03:18:29.982Z,1012.35
2018-07-26T03:19:29.970Z,1012.35
2018-07-26T03:20:29.974Z,1012.35
2018-07-26T03:21:29.964Z,1012.31
2018-07-26T03:22:29.934Z,1012.32
2018-07-26T03:23:29.926Z,1012.34
2018-07-26T03:24:29.911Z,1012.32
2018-07-26T03:25:29.895Z,1012.30
2018-07-26T03:26:29.885Z,1012.30
2018-07-26T03:27:29.877Z,1012.31
2018-07-26T03:28:29.862Z,1012.30
2018-07-26T03:29:29.847Z,1012.28
2018-07-26T03:30:29.836Z,1012.26
2018-07-26T03:31:29.837Z,1012.26
2018-07-26T03:32:29.820Z,1012.29
2018-07-26T03:33:29.801Z,1012.26
2018-07-26T03:34:29.791Z,1012.26
2018-07-26T03:36:22.727Z,1012.31
2018-07-26T08:10:16.830Z,1026.69
2018-07-26T08:11:16.844Z,1026.75
2018-07-26T08:12:16.823Z,1026.33
2018-07-26T08:13:16.814Z,1025.73
2018-07-26T08:14:16.810Z,1024.92
2018-07-26T08:15:16.804Z,1024.38
2018-07-26T08:16:16.800Z,1023.70
2018-07-26T08:17:16.802Z,1023.40
2018-07-26T08:18:16.791Z,1022.50
2018-07-26T08:19:16.790Z,1021.43
2018-07-26T08:20:16.781Z,1020.97
2018-07-26T08:21:16.790Z,1020.48
2018-07-26T08:22:16.776Z,1019.72
2018-07-26T08:23:16.775Z,1018.82
2018-07-26T08:24:16.768Z,1018.14
2018-07-26T08:25:16.765Z,1017.85
2018-07-26T08:26:16.762Z,1017.47
2018-07-26T08:27:16.757Z,1017.33
2018-07-26T08:28:16.762Z,1017.21
2018-07-26T08:29:16.767Z,1016.97
2018-07-26T08:30:16.749Z,1016.61
2018-07-26T08:31:16.749Z,1016.28
2018-07-26T08:32:16.744Z,1015.97
2018-07-26T08:33:16.744Z,1015.85
2018-07-26T08:34:16.740Z,1015.63
2018-07-26T08:35:16.739Z,1015.50
2018-07-26T08:36:16.736Z,1015.49
2018-07-26T08:37:16.736Z,1015.41
2018-07-26T08:38:16.735Z,1015.36
2018-07-26T08:39:16.734Z,1015.20
2018-07-26T08:40:16.728Z,1015.13
2018-07-26T08:41:16.730Z,1015.09
2018-07-26T08:42:16.727Z,1015.10
2018-07-26T08:43:16.724Z,1015.02
2018-07-26T08:44:16.727Z,1015.09
2018-07-26T08:45:16.721Z,1015.04
2018-07-26T08:46:16.722Z,1015.05
2018-07-26T08:47:16.716Z,1015.03
2018-07-26T08:48:16.745Z,1015.05
2018-07-26T08:49:16.719Z,1015.09
2018-07-26T08:50:16.715Z,1015.08
2018-07-26T08:51:16.718Z,1015.06
2018-07-26T08:52:16.779Z,1015.00
2018-07-26T08:53:16.711Z,1015.02
2018-07-26T08:54:16.772Z,1015.02
2018-07-26T08:55:16.712Z,1015.03
2018-07-26T08:56:16.715Z,1014.99
2018-07-26T08:57:16.709Z,1014.98
2018-07-26T08:58:16.712Z,1014.84
2018-07-26T08:59:16.708Z,1014.58
2018-07-26T09:00:16.709Z,1014.43
2018-07-26T09:01:16.723Z,1014.40
2018-07-26T09:02:16.711Z,1014.45
2018-07-26T09:03:16.710Z,1014.53
2018-07-26T09:04:16.705Z,1014.73
2018-07-26T09:05:16.706Z,1014.10
2018-07-26T09:06:16.705Z,1014.09
2018-07-26T09:07:16.709Z,1014.13
2018-07-26T09:08:16.705Z,1014.15
2018-07-26T09:09:16.701Z,1014.10
2018-07-26T09:10:16.701Z,1014.09
2018-07-26T09:11:16.730Z,1014.08
2018-07-26T09:12:16.701Z,1014.03
2018-07-26T09:13:16.700Z,1014.09
2018-07-26T09:14:16.702Z,1014.12
2018-07-26T09:15:16.699Z,1014.10
2018-07-26T09:16:16.695Z,1014.04
2018-07-26T09:17:16.820Z,1014.07
2018-07-26T09:18:16.693Z,1014.12
2018-07-26T09:19:16.691Z,1014.08
2018-07-26T09:26:17.629Z,1014.11
2018-07-26T09:27:17.406Z,1014.09
2018-07-26T09:33:16.925Z,1013.97
2018-07-26T09:34:16.875Z,1014.07
2018-07-26T09:35:17.011Z,1014.06
2018-07-26T09:36:16.867Z,1014.03
2018-07-26T09:37:16.867Z,1014.03
2018-07-26T09:38:16.650Z,1014.03
2018-07-26T09:40:17.392Z,1014.03
2018-07-26T09:41:16.720Z,1014.05
2018-07-26T09:42:16.636Z,1014.01
2018-07-26T09:43:16.639Z,1014.03
2018-07-26T09:44:16.637Z,1014.05
2018-07-26T09:45:16.630Z,1013.99
2018-07-26T09:46:16.626Z,1013.87
2018-07-26T09:47:16.646Z,1014.01
2018-07-26T09:48:16.621Z,1013.97
2018-07-26T09:49:16.614Z,1013.96
2018-07-26T09:50:16.614Z,1013.99
2018-07-26T09:51:16.614Z,1013.96
2018-07-26T09:52:16.607Z,1014.00
2018-07-26T09:53:16.719Z,1013.98
2018-07-26T09:54:16.606Z,1013.99
2018-07-26T09:55:16.644Z,1014.02
2018-07-26T09:56:16.621Z,1013.97
2018-07-26T09:57:16.882Z,1013.99
2018-07-26T09:58:16.866Z,1013.98
2018-07-26T09:59:16.795Z,1013.91
2018-07-26T10:00:16.669Z,1013.92
2018-07-26T10:01:16.575Z,1013.92
2018-07-26T10:02:16.573Z,1013.92
2018-07-26T10:03:16.570Z,1013.90
2018-07-26T10:04:16.573Z,1013.93
2018-07-26T10:05:16.559Z,1013.92
2018-07-26T10:06:16.559Z,1013.87
2018-07-26T10:07:16.553Z,1013.87
2018-07-26T10:08:16.548Z,1013.87
2018-07-26T10:09:16.545Z,1013.83
2018-07-26T10:10:16.542Z,1013.83
2018-07-26T10:11:16.548Z,1013.81
2018-07-26T10:12:16.547Z,1013.79
2018-07-26T10:13:16.533Z,1013.79
2018-07-26T10:14:16.530Z,1013.80
2018-07-26T10:15:16.524Z,1013.82
2018-07-26T10:16:16.518Z,1013.80
2018-07-26T10:17:16.513Z,1013.71
2018-07-26T10:18:16.510Z,1013.80
2018-07-26T10:19:16.509Z,1013.79
2018-07-26T10:20:16.580Z,1013.78
2018-07-26T10:21:16.502Z,1013.79
2018-07-26T10:22:16.497Z,1013.77
2018-07-26T10:23:16.493Z,1013.79
2018-07-26T10:24:16.489Z,1013.76
2018-07-26T10:25:16.484Z,1013.68
2018-07-26T10:26:16.479Z,1013.72
2018-07-26T10:27:16.479Z,1013.72
2018-07-26T10:28:16.471Z,1013.79
2018-07-26T10:29:16.468Z,1013.75
2018-07-26T10:30:16.464Z,1013.77
2018-07-26T10:31:16.460Z,1013.81
2018-07-26T10:32:16.455Z,1013.78
2018-07-26T10:33:16.452Z,1013.78
2018-07-26T10:34:16.448Z,1013.79
2018-07-26T10:35:16.446Z,1013.73
2018-07-26T10:36:16.448Z,1013.75
2018-07-26T10:37:16.437Z,1013.72
2018-07-26T10:38:16.434Z,1013.74
2018-07-26T10:39:16.428Z,1013.76
2018-07-26T10:40:16.425Z,1013.75
2018-07-26T10:41:16.422Z,1013.74
2018-07-26T10:42:16.415Z,1013.73
2018-07-26T10:43:16.413Z,1013.75
2018-07-26T10:44:16.408Z,1013.76
2018-07-26T10:45:16.407Z,1013.71
2018-07-26T10:46:16.399Z,1013.69
2018-07-26T10:47:16.396Z,1013.70
2018-07-26T10:48:16.392Z,1013.69
2018-07-26T10:49:16.390Z,1013.68
2018-07-26T10:50:16.384Z,1013.66
2018-07-26T10:51:16.380Z,1013.64
2018-07-26T10:52:16.374Z,1013.68
2018-07-26T10:53:16.373Z,1013.62
2018-07-26T10:54:16.367Z,1013.58
2018-07-26T10:55:16.364Z,1013.58
2018-07-26T10:56:16.360Z,1013.56
2018-07-26T10:57:16.357Z,1013.56
2018-07-26T10:58:16.366Z,1013.54
2018-07-26T10:59:16.353Z,1013.57
2018-07-26T11:00:16.363Z,1013.55
2018-07-26T11:01:16.340Z,1013.56
2018-07-26T11:02:16.339Z,1013.55
2018-07-26T11:03:16.334Z,1013.52
2018-07-26T11:04:16.326Z,1013.49
2018-07-26T11:05:16.323Z,1013.51
2018-07-26T11:06:16.320Z,1013.53
2018-07-26T11:07:16.316Z,1013.52
2018-07-26T11:08:16.310Z,1013.50
2018-07-26T11:09:16.306Z,1013.49
2018-07-26T11:10:16.302Z,1013.48
2018-07-26T11:11:16.302Z,1013.52
2018-07-26T11:12:16.298Z,1013.52
2018-07-26T11:13:16.289Z,1013.54
2018-07-26T11:14:16.285Z,1013.50
2018-07-26T11:15:16.294Z,1013.52
2018-07-26T11:16:16.280Z,1013.50
2018-07-26T11:17:16.273Z,1013.56
2018-07-26T11:18:16.271Z,1013.52
2018-07-26T11:19:16.266Z,1013.50
2018-07-26T11:20:16.263Z,1013.48
2018-07-26T11:21:16.257Z,1013.43
2018-07-26T11:22:16.253Z,1013.45
2018-07-26T11:23:16.254Z,1013.48
2018-07-26T11:24:16.282Z,1013.53
2018-07-26T11:25:16.239Z,1013.53
2018-07-26T11:26:16.237Z,1013.46
2018-07-26T11:27:16.237Z,1013.50
2018-07-26T11:28:16.228Z,1013.51
2018-07-26T11:29:16.226Z,1013.48
2018-07-26T11:30:16.221Z,1013.42
2018-07-26T11:31:16.221Z,1013.48
2018-07-26T11:32:16.264Z,1013.47
2018-07-26T11:33:16.209Z,1013.44
2018-07-26T11:34:16.205Z,1013.42
2018-07-26T11:35:16.201Z,1013.46
2018-07-26T11:36:16.197Z,1013.45
2018-07-26T11:37:16.192Z,1013.43
2018-07-26T11:38:16.193Z,1013.44
2018-07-26T11:39:16.185Z,1013.40
2018-07-26T11:40:16.179Z,1013.35
2018-07-26T11:41:16.220Z,1013.39
2018-07-26T11:42:16.178Z,1013.35
2018-07-26T11:43:16.172Z,1013.29
2018-07-26T11:44:16.162Z,1013.33
2018-07-26T11:45:16.164Z,1013.32
2018-07-26T11:46:16.158Z,1013.30
2018-07-26T11:47:16.151Z,1013.31
2018-07-26T11:48:16.149Z,1013.28
2018-07-26T11:49:16.142Z,1013.29
2018-07-26T11:50:16.143Z,1013.31
2018-07-26T11:51:16.136Z,1013.28
2018-07-26T11:52:16.131Z,1013.29
2018-07-26T11:53:16.127Z,1013.28
2018-07-26T11:54:16.123Z,1013.30
2018-07-26T11:55:16.119Z,1013.27
2018-07-26T11:56:16.116Z,1013.23
2018-07-26T11:57:16.114Z,1013.21
2018-07-26T11:58:16.112Z,1013.22
2018-07-26T11:59:16.105Z,1013.21
2018-07-26T12:00:16.100Z,1013.21
2018-07-26T12:01:16.097Z,1013.23
2018-07-26T12:02:16.093Z,1013.23
2018-07-26T12:03:16.089Z,1013.28
2018-07-26T12:04:16.084Z,1013.24
2018-07-26T12:05:16.081Z,1013.20
2018-07-26T12:06:16.076Z,1013.24
2018-07-26T12:07:16.073Z,1013.22
2018-07-26T12:08:16.111Z,1013.23
2018-07-26T12:09:16.069Z,1013.25
2018-07-26T12:10:16.062Z,1013.25
2018-07-26T12:11:16.059Z,1013.23
2018-07-26T12:12:16.058Z,1013.24
2018-07-26T12:13:16.052Z,1013.24
2018-07-26T12:14:16.097Z,1013.18
2018-07-26T12:15:16.048Z,1013.23
2018-07-26T12:16:16.044Z,1013.20
2018-07-26T12:17:16.040Z,1013.23
2018-07-26T12:18:16.035Z,1013.18
2018-07-26T12:19:16.034Z,1013.36
2018-07-26T12:20:16.033Z,1013.48
2018-07-26T12:21:16.040Z,1013.34
2018-07-26T12:22:16.024Z,1013.16
2018-07-26T12:23:16.026Z,1013.31
2018-07-26T12:24:16.021Z,1013.40
2018-07-26T12:25:16.019Z,1013.61
2018-07-26T12:26:16.020Z,1013.67
2018-07-26T12:27:16.014Z,1013.61
2018-07-26T12:28:16.016Z,1013.60
2018-07-26T12:29:16.009Z,1013.40
2018-07-26T12:30:16.009Z,1013.21
2018-07-26T12:31:16.008Z,1013.08
2018-07-26T12:32:16.004Z,1013.05
2018-07-26T12:33:16.002Z,1013.02
2018-07-26T12:34:16.006Z,1013.01
2018-07-26T12:35:16.002Z,1013.08
2018-07-26T12:36:15.998Z,1013.17
2018-07-26T12:37:15.999Z,1013.39
2018-07-26T12:38:15.995Z,1013.43
2018-07-26T12:39:15.995Z,1013.37
2018-07-26T12:40:15.993Z,1013.43
2018-07-26T12:41:15.992Z,1013.38
2018-07-26T12:42:15.990Z,1013.37
2018-07-26T12:43:15.998Z,1013.27
2018-07-26T12:44:15.987Z,1013.13
2018-07-26T12:45:15.985Z,1013.03
2018-07-26T12:46:15.985Z,1012.93
2018-07-26T12:47:15.983Z,1012.87
2018-07-26T12:48:15.984Z,1012.80
2018-07-26T12:49:15.979Z,1012.77
2018-07-26T12:50:15.979Z,1012.78
2018-07-26T12:51:15.977Z,1012.78
2018-07-26T12:52:15.974Z,1012.82
2018-07-26T12:53:15.975Z,1012.81
2018-07-26T12:54:15.974Z,1012.83
2018-07-26T12:55:15.971Z,1012.78
2018-07-26T12:56:15.968Z,1012.77
2018-07-26T12:57:15.967Z,1012.73
2018-07-26T12:58:15.967Z,1012.69
2018-07-26T12:59:15.963Z,1012.66
2018-07-26T13:00:15.963Z,1012.66
2018-07-26T13:01:15.960Z,1012.65
2018-07-26T13:02:15.960Z,1012.64
2018-07-26T13:03:15.958Z,1012.68
2018-07-26T13:04:15.955Z,1012.79
2018-07-26T13:05:15.956Z,1013.01
2018-07-26T13:06:15.952Z,1013.11
2018-07-26T13:07:16.076Z,1013.14
2018-07-26T13:08:15.951Z,1013.19
2018-07-26T13:09:15.952Z,1013.11
2018-07-26T13:10:15.946Z,1012.99
2018-07-26T13:11:15.946Z,1012.80
2018-07-26T13:12:15.967Z,1012.75
2018-07-26T13:13:15.945Z,1012.68
2018-07-26T13:14:15.942Z,1012.57
2018-07-26T13:15:15.939Z,1012.57
2018-07-26T13:16:15.940Z,1012.59
2018-07-26T13:17:15.936Z,1012.52
2018-07-26T13:18:15.956Z,1012.57
2018-07-26T13:19:15.932Z,1012.56
2018-07-26T13:20:15.929Z,1012.50
2018-07-26T13:21:15.927Z,1012.52
2018-07-26T13:22:15.927Z,1012.54
2018-07-26T13:23:15.925Z,1012.57
2018-07-26T13:24:15.922Z,1012.58
2018-07-26T13:25:15.924Z,1012.56
2018-07-26T13:26:15.923Z,1012.58
2018-07-26T13:27:15.960Z,1012.58
2018-07-26T13:28:15.917Z,1012.58
2018-07-26T13:29:15.916Z,1012.53
2018-07-26T13:30:15.914Z,1012.56
2018-07-26T13:31:15.909Z,1012.51
2018-07-26T13:32:15.905Z,1012.50
2018-07-26T13:33:15.905Z,1012.53
2018-07-26T13:34:15.956Z,1012.54
2018-07-26T13:35:15.903Z,1012.47
2018-07-26T13:36:15.894Z,1012.46
2018-07-26T13:37:15.893Z,1012.46
2018-07-26T13:38:15.890Z,1012.47
2018-07-26T13:39:15.888Z,1012.43
2018-07-26T13:40:15.915Z,1012.44
2018-07-26T13:41:15.883Z,1012.51
2018-07-26T13:42:15.881Z,1012.50
2018-07-26T13:43:15.876Z,1012.49
2018-07-26T13:44:15.882Z,1012.38
2018-07-26T13:45:15.870Z,1012.48
2018-07-26T13:46:15.929Z,1012.40
2018-07-26T13:47:15.865Z,1012.49
2018-07-26T13:48:15.867Z,1012.46
2018-07-26T13:49:15.867Z,1012.48
2018-07-26T13:50:15.856Z,1012.49
2018-07-26T13:51:15.855Z,1012.45
2018-07-26T13:52:15.859Z,1012.42
2018-07-26T13:53:15.848Z,1012.39
2018-07-26T13:54:15.847Z,1012.38
2018-07-26T13:55:15.844Z,1012.38
2018-07-26T13:56:15.841Z,1012.40
2018-07-26T13:57:15.838Z,1012.41
2018-07-26T13:58:15.834Z,1012.34
2018-07-26T13:59:15.832Z,1012.42
2018-07-26T14:00:15.837Z,1012.46
2018-07-26T14:01:15.842Z,1012.42
2018-07-26T14:02:15.940Z,1012.43
2018-07-26T14:03:15.818Z,1012.38
2018-07-26T14:04:15.893Z,1012.38
2018-07-26T14:05:15.813Z,1012.38
2018-07-26T14:06:15.810Z,1012.39
2018-07-26T14:07:15.808Z,1012.36
2018-07-26T14:08:15.913Z,1012.34
2018-07-26T14:09:15.928Z,1012.35
2018-07-26T14:10:16.290Z,1012.31
2018-07-26T14:11:15.799Z,1012.33
2018-07-26T14:12:15.809Z,1012.33
2018-07-26T14:13:15.790Z,1012.31
2018-07-26T14:14:15.787Z,1012.33
2018-07-26T14:15:15.932Z,1012.29
2018-07-26T14:16:15.780Z,1012.31
2018-07-26T14:17:15.905Z,1012.35
2018-07-26T14:18:15.775Z,1012.33
2018-07-26T14:53:28.083Z,1012.12
2018-07-26T14:54:28.035Z,1012.08
2018-07-26T14:55:28.023Z,1012.11
2018-07-26T14:56:28.034Z,1012.06
2018-07-26T14:57:28.016Z,1012.08
2018-07-26T14:58:28.015Z,1012.09
2018-07-26T14:59:28.009Z,1012.09
2018-07-26T15:00:28.021Z,1012.11
2018-07-26T15:01:28.005Z,1012.10
2018-07-26T15:02:28.003Z,1012.09
2018-07-26T15:03:27.992Z,1012.09
2018-07-26T15:04:27.988Z,1012.07
2018-07-26T15:05:27.987Z,1012.06
2018-07-26T15:06:27.984Z,1012.06
2018-07-26T15:07:27.977Z,1012.04
2018-07-26T15:08:27.974Z,1012.00
2018-07-26T15:09:27.970Z,1012.01
2018-07-26T15:10:27.967Z,1012.04
2018-07-26T15:11:27.961Z,1012.01
2018-07-26T15:12:27.959Z,1011.99
2018-07-26T15:13:27.954Z,1012.00
2018-07-26T15:14:27.950Z,1012.01
2018-07-26T15:15:27.946Z,1012.03
2018-07-26T15:16:27.942Z,1012.01
2018-07-26T15:17:27.938Z,1011.97
2018-07-26T15:18:27.935Z,1011.99
2018-07-26T15:19:27.931Z,1011.98
2018-07-26T15:20:27.984Z,1011.97
2018-07-26T15:21:27.925Z,1011.98
2018-07-26T15:22:27.921Z,1012.00
2018-07-26T15:23:27.916Z,1011.95
2018-07-26T15:24:27.981Z,1011.97
2018-07-26T15:25:27.911Z,1011.97
2018-07-26T15:26:27.902Z,1011.94
2018-07-26T15:27:27.899Z,1011.92
2018-07-26T15:28:27.897Z,1011.92
2018-07-26T15:29:27.990Z,1011.92
2018-07-26T15:30:27.886Z,1011.88
2018-07-26T15:31:27.882Z,1011.88
2018-07-26T15:32:27.977Z,1011.90
2018-07-26T15:33:27.874Z,1011.96
2018-07-26T15:34:27.870Z,1011.92
2018-07-26T15:35:27.880Z,1011.93
2018-07-26T15:36:27.861Z,1011.92
2018-07-26T15:37:27.868Z,1011.93
2018-07-26T15:38:27.853Z,1011.95
2018-07-26T15:39:27.853Z,1011.95
2018-07-26T15:40:27.846Z,1011.94
2018-07-26T15:41:27.861Z,1011.94
2018-07-26T15:42:27.840Z,1011.94
2018-07-26T15:43:27.832Z,1011.92
2018-07-26T15:44:27.830Z,1011.91
2018-07-26T15:45:27.823Z,1011.91
2018-07-26T15:46:27.820Z,1011.92
2018-07-26T15:47:27.819Z,1011.88
2018-07-26T15:48:27.810Z,1011.81
2018-07-26T15:49:27.807Z,1011.83
2018-07-26T15:50:27.802Z,1011.85
2018-07-26T15:51:27.885Z,1011.81
2018-07-26T15:52:27.793Z,1011.89
2018-07-26T15:53:27.789Z,1011.83
2018-07-26T15:54:27.785Z,1011.86
2018-07-26T15:55:27.789Z,1011.83
2018-07-26T15:56:27.776Z,1011.85
2018-07-26T15:57:27.774Z,1011.84
2018-07-26T15:58:27.768Z,1011.85
2018-07-26T15:59:27.762Z,1011.86
2018-07-26T16:00:27.759Z,1011.83
2018-07-26T16:01:27.754Z,1011.84
2018-07-26T16:02:27.753Z,1011.79
2018-07-26T16:03:27.750Z,1011.79
2018-07-26T16:04:27.740Z,1011.78
2018-07-26T16:05:27.737Z,1011.70
2018-07-26T16:06:27.734Z,1011.76
2018-07-26T16:07:27.727Z,1011.72
2018-07-26T16:08:27.724Z,1011.72
2018-07-26T16:09:27.723Z,1011.76
2018-07-26T16:10:27.715Z,1011.80
2018-07-26T16:11:27.710Z,1011.79
2018-07-26T16:12:27.712Z,1011.75
2018-07-26T16:13:27.704Z,1011.74
2018-07-26T16:14:27.697Z,1011.78
2018-07-26T16:15:27.699Z,1011.80
2018-07-26T16:16:27.691Z,1011.76
2018-07-26T16:17:27.735Z,1011.72
2018-07-26T16:18:27.678Z,1011.69
2018-07-26T16:19:27.673Z,1011.73
2018-07-26T16:20:27.672Z,1011.68
2018-07-26T16:24:05.299Z,1011.75
2018-07-26T16:25:05.294Z,1011.70
2018-07-26T16:26:05.286Z,1011.67
2018-07-26T16:27:05.287Z,1011.68
2018-07-26T16:28:05.278Z,1011.67
2018-07-26T16:29:05.385Z,1011.70
2018-07-26T16:30:05.269Z,1011.66
2018-07-26T16:31:05.267Z,1011.68
2018-07-26T16:32:05.257Z,1011.66
2018-07-26T16:33:05.254Z,1011.62
2018-07-26T16:34:05.277Z,1011.63
2018-07-26T16:35:05.254Z,1011.59
2018-07-26T16:36:05.249Z,1011.63
2018-07-26T16:37:05.244Z,1011.63
2018-07-26T16:38:05.238Z,1011.54
2018-07-26T16:39:05.234Z,1011.61
2018-07-26T16:40:05.293Z,1011.55
2018-07-26T16:41:05.214Z,1011.61
2018-07-26T16:42:05.213Z,1011.58
2018-07-26T16:43:05.207Z,1011.64
2018-07-26T16:44:05.202Z,1011.64
2018-07-26T16:45:05.202Z,1011.62
2018-07-26T16:46:05.197Z,1011.66
2018-07-26T16:47:05.191Z,1011.60
2018-07-26T16:48:05.183Z,1011.61
2018-07-26T16:49:05.178Z,1011.62
2018-07-26T16:50:05.173Z,1011.64
2018-07-26T16:51:05.170Z,1011.64
2018-07-26T16:52:05.167Z,1011.62
2018-07-26T16:53:05.167Z,1011.63
2018-07-26T16:54:05.156Z,1011.67
2018-07-26T16:55:05.148Z,1011.62
2018-07-26T16:56:05.149Z,1011.65
2018-07-26T16:57:05.139Z,1011.64
2018-07-26T16:58:05.133Z,1011.64
2018-07-26T16:59:05.133Z,1011.68
2018-07-26T17:00:05.129Z,1011.65
2018-07-26T17:01:05.126Z,1011.61
2018-07-26T17:02:05.114Z,1011.62
2018-07-26T17:03:05.110Z,1011.61
2018-07-26T17:04:05.113Z,1011.65
2018-07-26T17:05:05.098Z,1011.64
2018-07-26T17:06:05.095Z,1011.64
2018-07-26T17:07:05.090Z,1011.64
2018-07-26T17:08:05.084Z,1011.63
2018-07-26T17:09:05.081Z,1011.65
2018-07-26T17:10:05.077Z,1011.68
2018-07-26T17:11:05.072Z,1011.67
2018-07-26T17:12:05.074Z,1011.68
2018-07-26T17:13:05.060Z,1011.66
2018-07-26T17:14:05.055Z,1011.71
2018-07-26T17:15:05.049Z,1011.67
2018-07-26T17:16:05.043Z,1011.67
2018-07-26T17:17:05.039Z,1011.66
2018-07-26T17:18:05.033Z,1011.64
2018-07-26T17:19:05.085Z,1011.66
2018-07-26T17:20:05.025Z,1011.64
2018-07-26T17:21:05.017Z,1011.67
2018-07-26T17:22:05.011Z,1011.71
2018-07-26T17:23:05.007Z,1011.68
2018-07-26T17:24:04.999Z,1011.69
2018-07-26T17:25:05.013Z,1011.71
2018-07-26T17:26:04.991Z,1011.75
2018-07-26T17:27:04.988Z,1011.72
2018-07-26T17:28:04.984Z,1011.74
2018-07-26T17:29:05.008Z,1011.72
2018-07-26T17:30:04.973Z,1011.71
2018-07-26T17:31:04.964Z,1011.71
2018-07-26T17:32:04.961Z,1011.73
2018-07-26T17:33:04.956Z,1011.68
2018-07-26T17:34:04.947Z,1011.70